createdAt,value
2022-12-17T00:00:47.511Z,-39.98
2022-12-17T00:01:47.699Z,-39.97
2022-12-17T00:02:48.102Z,-39.97
2022-12-17T00:03:48.640Z,-39.98
2022-12-17T00:04:48.636Z,-39.98
2022-12-17T00:05:49.042Z,-39.99
2022-12-17T00:06:49.246Z,-39.98
2022-12-17T00:07:49.430Z,-39.99
2022-12-17T00:08:50.048Z,-40.00
2022-12-17T00:09:50.632Z,-39.98
2022-12-17T00:10:50.394Z,-39.98
2022-12-17T00:11:50.879Z,-39.98
2022-12-17T00:12:50.935Z,-39.46
2022-12-17T00:13:51.518Z,-39.47
2022-12-17T00:14:51.606Z,-39.47
2022-12-17T00:15:52.084Z,-39.51
2022-12-17T00:16:52.233Z,-40.00
2022-12-17T00:17:52.628Z,-39.50
2022-12-17T00:18:53.001Z,-39.52
2022-12-17T00:19:53.127Z,-39.52
2022-12-17T00:20:53.398Z,-39.57
2022-12-17T00:21:53.839Z,-39.58
2022-12-17T00:22:53.998Z,-39.60
2022-12-17T00:23:54.388Z,-39.60
2022-12-17T00:24:56.394Z,-39.60
2022-12-17T00:25:55.076Z,-39.57
2022-12-17T00:26:55.285Z,-39.59
2022-12-17T00:27:55.455Z,-39.56
2022-12-17T00:28:56.027Z,-39.58
2022-12-17T00:29:56.259Z,-39.60
2022-12-17T00:30:56.358Z,-39.59
2022-12-17T00:31:56.725Z,-39.60
2022-12-17T00:32:57.016Z,-39.60
2022-12-17T00:33:57.373Z,-39.60
2022-12-17T00:34:57.851Z,-39.60
2022-12-17T00:35:57.969Z,-39.58
2022-12-17T00:36:58.364Z,-39.58
2022-12-17T00:37:58.386Z,-39.60
2022-12-17T00:38:58.851Z,-39.60
2022-12-17T00:39:59.632Z,-39.60
2022-12-17T00:40:59.608Z,-39.65
2022-12-17T00:41:59.883Z,-39.68
2022-12-17T00:43:00.095Z,-39.61
2022-12-17T00:44:00.302Z,-39.64
2022-12-17T00:45:00.860Z,-39.68
2022-12-17T00:46:00.815Z,-39.68
2022-12-17T00:47:01.108Z,-39.68
2022-12-17T00:48:01.384Z,-39.68
2022-12-17T00:49:01.545Z,-39.68
2022-12-17T00:50:01.803Z,-39.79
2022-12-17T00:51:02.108Z,-39.68
2022-12-17T00:52:02.433Z,-39.68
2022-12-17T00:53:02.649Z,-39.80
2022-12-17T00:54:03.259Z,-39.80
2022-12-17T00:55:03.456Z,-39.82
2022-12-17T00:56:03.557Z,-39.82
2022-12-17T00:57:03.885Z,-39.83
2022-12-17T00:58:04.309Z,-39.83
2022-12-17T00:59:04.364Z,-39.84
2022-12-17T01:00:04.930Z,-39.84
2022-12-17T01:01:04.889Z,-39.83
2022-12-17T01:02:05.612Z,-39.84
2022-12-17T01:03:05.532Z,-39.83
2022-12-17T01:04:05.799Z,-39.84
2022-12-17T01:05:06.161Z,-39.82
2022-12-17T01:06:06.368Z,-39.83
2022-12-17T01:07:07.238Z,-39.84
2022-12-17T01:08:07.230Z,-39.84
2022-12-17T01:09:08.379Z,-39.82
2022-12-17T01:10:07.615Z,-39.84
2022-12-17T01:11:07.876Z,-39.80
2022-12-17T01:12:08.192Z,-39.83
2022-12-17T01:13:08.423Z,-39.92
2022-12-17T01:14:08.683Z,-39.96
2022-12-17T01:15:08.979Z,-39.96
2022-12-17T01:16:09.377Z,-39.96
2022-12-17T01:17:09.466Z,-39.96
2022-12-17T01:18:09.781Z,-39.92
2022-12-17T01:19:10.046Z,-39.92
2022-12-17T01:20:10.382Z,-39.90
2022-12-17T01:21:10.647Z,-39.92
2022-12-17T01:22:10.946Z,-39.91
2022-12-17T01:23:11.217Z,-39.91
2022-12-17T01:24:11.503Z,-39.91
2022-12-17T01:25:11.792Z,-39.91
2022-12-17T01:26:12.061Z,-40.00
2022-12-17T01:27:12.474Z,-39.99
2022-12-17T01:28:12.579Z,-39.98
2022-12-17T01:29:12.922Z,-39.97
2022-12-17T01:30:13.061Z,-40.00
2022-12-17T01:31:13.492Z,-40.00
2022-12-17T01:32:13.718Z,-39.94
2022-12-17T01:33:13.992Z,-39.95
2022-12-17T01:34:14.471Z,-39.98
2022-12-17T01:35:15.026Z,-39.96
2022-12-17T01:36:14.991Z,-40.00
2022-12-17T01:37:15.260Z,-39.89
2022-12-17T01:38:15.417Z,-39.91
2022-12-17T01:39:15.662Z,-39.91
2022-12-17T01:40:15.932Z,-39.92
2022-12-17T01:41:16.211Z,-40.00
2022-12-17T01:42:16.781Z,-39.97
2022-12-17T01:43:17.093Z,-40.00
2022-12-17T01:44:17.022Z,-1.77
2022-12-17T01:45:17.244Z,-1.77
2022-12-17T01:46:17.829Z,-1.77
2022-12-17T01:47:17.975Z,-1.77
2022-12-17T01:48:18.475Z,-1.77
2022-12-17T01:49:18.504Z,-1.77
2022-12-17T01:50:18.890Z,-1.81
2022-12-17T01:51:19.575Z,-1.79
2022-12-17T01:52:19.496Z,-1.80
2022-12-17T01:53:19.669Z,-1.75
2022-12-17T01:54:20.044Z,-1.79
2022-12-17T01:55:20.521Z,-1.73
2022-12-17T01:56:20.454Z,-1.73
2022-12-17T01:57:20.916Z,-1.69
2022-12-17T01:58:21.168Z,-1.72
2022-12-17T01:59:21.265Z,-1.72
2022-12-17T02:00:21.990Z,-1.77
2022-12-17T02:01:21.931Z,-1.80
2022-12-17T02:02:22.167Z,-1.81
2022-12-17T02:03:22.380Z,-1.87
2022-12-17T02:04:22.980Z,-1.88
2022-12-17T02:05:23.002Z,-1.81
2022-12-17T02:06:23.298Z,-1.80
2022-12-17T02:07:23.861Z,-1.81
2022-12-17T02:08:23.924Z,-1.79
2022-12-17T02:09:24.214Z,-1.79
2022-12-17T02:10:24.556Z,-1.79
2022-12-17T02:11:24.776Z,-1.77
2022-12-17T02:12:25.460Z,-1.79
2022-12-17T02:13:32.363Z,-1.80
2022-12-17T02:14:25.500Z,-1.78
2022-12-17T02:15:27.473Z,-1.80
2022-12-17T02:16:26.148Z,-1.91
2022-12-17T02:17:26.379Z,-1.96
2022-12-17T02:18:26.665Z,-1.96
2022-12-17T02:19:27.031Z,-1.97
2022-12-17T02:20:27.334Z,-1.84
2022-12-17T02:21:27.554Z,-1.97
2022-12-17T02:22:27.922Z,-1.85
2022-12-17T02:23:28.248Z,-1.89
2022-12-17T02:24:28.499Z,-1.92
2022-12-17T02:25:28.794Z,-1.94
2022-12-17T02:26:29.015Z,-1.96
2022-12-17T02:27:29.363Z,-1.87
2022-12-17T02:28:29.619Z,-1.89
2022-12-17T02:29:29.939Z,-1.94
2022-12-17T02:30:30.267Z,-1.97
2022-12-17T02:31:30.619Z,-2.19
2022-12-17T02:32:30.956Z,-2.26
2022-12-17T02:33:31.113Z,-2.25
2022-12-17T02:34:31.480Z,-2.26
2022-12-17T02:35:31.828Z,-2.28
2022-12-17T02:36:32.160Z,-2.28
2022-12-17T02:37:32.482Z,-2.33
2022-12-17T02:38:32.824Z,-2.33
2022-12-17T02:39:33.139Z,-2.34
2022-12-17T02:40:33.382Z,-2.33
2022-12-17T02:41:33.769Z,-2.35
2022-12-17T02:42:34.082Z,-2.35
2022-12-17T02:43:34.803Z,-2.36
2022-12-17T02:44:34.624Z,-2.36
2022-12-17T02:45:34.900Z,-2.35
2022-12-17T02:46:35.092Z,-2.36
2022-12-17T02:47:35.368Z,-2.29
2022-12-17T02:48:35.542Z,-2.28
2022-12-17T02:49:35.877Z,-2.35
2022-12-17T02:50:36.211Z,-2.29
2022-12-17T02:51:36.435Z,-2.36
2022-12-17T02:52:36.832Z,-2.36
2022-12-17T02:53:37.512Z,-2.38
2022-12-17T02:54:37.320Z,-2.38
2022-12-17T02:55:37.687Z,-2.41
2022-12-17T02:56:38.012Z,-2.46
2022-12-17T02:57:43.465Z,-2.42
2022-12-17T02:58:39.646Z,-2.43
2022-12-17T02:59:38.881Z,-2.45
2022-12-17T03:00:39.120Z,-2.43
2022-12-17T03:01:39.474Z,-2.42
2022-12-17T03:02:39.829Z,-2.45
2022-12-17T03:03:40.407Z,-2.44
2022-12-17T03:04:40.319Z,-2.53
2022-12-17T03:05:45.375Z,-2.54
2022-12-17T03:06:41.920Z,-2.58
2022-12-17T03:07:41.207Z,-2.54
2022-12-17T03:08:41.539Z,-2.58
2022-12-17T03:09:41.830Z,-2.58
2022-12-17T03:10:42.220Z,-2.62
2022-12-17T03:11:42.537Z,-2.62
2022-12-17T03:12:42.886Z,-2.61
2022-12-17T03:13:43.075Z,-2.61
2022-12-17T03:14:43.312Z,-2.46
2022-12-17T03:15:43.538Z,-2.60
2022-12-17T03:16:43.938Z,-2.62
2022-12-17T03:17:44.288Z,-2.57
2022-12-17T03:18:44.499Z,-2.61
2022-12-17T03:19:44.782Z,-2.60
2022-12-17T03:20:45.166Z,-2.60
2022-12-17T03:21:45.486Z,-2.57
2022-12-17T03:22:45.840Z,-2.59
2022-12-17T03:23:46.021Z,-2.62
2022-12-17T03:24:46.260Z,-2.62
2022-12-17T03:25:46.515Z,-2.62
2022-12-17T03:26:46.828Z,-2.52
2022-12-17T03:27:47.061Z,-2.53
2022-12-17T03:28:47.385Z,-2.53
2022-12-17T03:29:47.624Z,-2.60
2022-12-17T03:30:49.255Z,-2.58
2022-12-17T03:31:48.210Z,-2.62
2022-12-17T03:32:48.520Z,-2.58
2022-12-17T03:33:48.740Z,-2.61
2022-12-17T03:34:49.116Z,-2.62
2022-12-17T03:35:49.400Z,-2.62
2022-12-17T03:36:49.765Z,-2.56
2022-12-17T03:37:50.017Z,-2.62
2022-12-17T03:38:50.326Z,-2.61
2022-12-17T03:39:50.565Z,-2.56
2022-12-17T03:40:50.780Z,-2.59
2022-12-17T03:41:51.136Z,-2.56
2022-12-17T03:42:51.405Z,-2.58
2022-12-17T03:43:51.720Z,-2.58
2022-12-17T03:44:52.058Z,-2.59
2022-12-17T03:45:52.387Z,-2.62
2022-12-17T03:46:52.617Z,-2.62
2022-12-17T03:47:52.919Z,-2.60
2022-12-17T03:48:53.174Z,-2.62
2022-12-17T03:49:53.495Z,-2.58
2022-12-17T03:50:53.815Z,-2.58
2022-12-17T03:51:54.145Z,-2.62
2022-12-17T03:52:54.450Z,-2.59
2022-12-17T03:53:54.706Z,-2.62
2022-12-17T03:54:55.002Z,-2.50
2022-12-17T03:55:55.357Z,-2.50
2022-12-17T03:56:55.605Z,-2.53
2022-12-17T03:57:55.975Z,-2.50
2022-12-17T03:58:56.139Z,-2.46
2022-12-17T03:59:56.517Z,-2.50
2022-12-17T04:00:56.799Z,-2.54
2022-12-17T04:01:57.256Z,-2.54
2022-12-17T04:02:57.632Z,-2.54
2022-12-17T04:03:57.747Z,-2.50
2022-12-17T04:04:58.064Z,-2.54
2022-12-17T04:05:58.317Z,-2.54
2022-12-17T04:06:58.648Z,-2.59
2022-12-17T04:07:58.959Z,-2.58
2022-12-17T04:08:59.294Z,-2.56
2022-12-17T04:09:59.605Z,-2.57
2022-12-17T04:10:59.856Z,-2.56
2022-12-17T04:12:00.157Z,-2.59
2022-12-17T04:13:00.397Z,-2.54
2022-12-17T04:14:00.657Z,-2.54
2022-12-17T04:15:00.938Z,-2.56
2022-12-17T04:16:01.335Z,-2.58
2022-12-17T04:17:01.528Z,-2.58
2022-12-17T04:18:01.898Z,-2.58
2022-12-17T04:19:02.226Z,-2.58
2022-12-17T04:20:02.555Z,-2.62
2022-12-17T04:21:02.860Z,-2.62
2022-12-17T04:22:03.113Z,-2.58
2022-12-17T04:23:03.438Z,-2.61
2022-12-17T04:24:03.747Z,-2.62
2022-12-17T04:25:03.985Z,-2.62
2022-12-17T04:26:04.197Z,-2.60
2022-12-17T04:27:04.553Z,-2.62
2022-12-17T04:28:04.804Z,-2.62
2022-12-17T04:29:05.135Z,-2.60
2022-12-17T04:30:05.428Z,-2.62
2022-12-17T04:31:05.794Z,-2.62
2022-12-17T04:32:06.115Z,-2.62
2022-12-17T04:33:06.471Z,-2.57
2022-12-17T04:34:06.650Z,-2.61
2022-12-17T04:35:07.014Z,-3.40
2022-12-17T04:36:07.236Z,-3.42
2022-12-17T04:37:07.482Z,-3.40
2022-12-17T04:38:07.744Z,-3.42
2022-12-17T04:39:08.048Z,-3.46
2022-12-17T04:40:08.266Z,-3.46
2022-12-17T04:41:08.632Z,-3.46
2022-12-17T04:42:08.845Z,-3.46
2022-12-17T04:43:09.203Z,-2.62
2022-12-17T04:44:09.488Z,-3.44
2022-12-17T04:45:09.826Z,-3.44
2022-12-17T04:46:10.261Z,-3.44
2022-12-17T04:47:10.464Z,-2.61
2022-12-17T04:48:10.722Z,-2.61
2022-12-17T04:49:11.024Z,-2.62
2022-12-17T04:50:11.246Z,-3.40
2022-12-17T04:51:11.498Z,-3.40
2022-12-17T04:52:11.705Z,-3.42
2022-12-17T04:53:12.083Z,-3.51
2022-12-17T04:54:12.392Z,-3.54
2022-12-17T04:55:12.704Z,-3.55
2022-12-17T04:56:12.979Z,-3.58
2022-12-17T04:57:13.296Z,-3.56
2022-12-17T04:58:13.683Z,-3.58
2022-12-17T04:59:13.977Z,-3.52
2022-12-17T05:00:14.310Z,-3.58
2022-12-17T05:01:14.728Z,-3.56
2022-12-17T05:02:15.142Z,-3.56
2022-12-17T05:03:15.229Z,-3.57
2022-12-17T05:04:15.552Z,-3.56
2022-12-17T05:05:15.875Z,-3.56
2022-12-17T05:06:16.235Z,-3.56
2022-12-17T05:07:16.491Z,-2.62
2022-12-17T05:08:16.809Z,-3.55
2022-12-17T05:09:17.053Z,-3.53
2022-12-17T05:10:17.375Z,-2.62
2022-12-17T05:11:17.717Z,-3.50
2022-12-17T05:12:17.962Z,-3.52
2022-12-17T05:13:18.331Z,-3.54
2022-12-17T05:14:18.641Z,-3.58
2022-12-17T05:15:18.959Z,-3.55
2022-12-17T05:16:19.344Z,-3.55
2022-12-17T05:17:19.502Z,-3.56
2022-12-17T05:18:19.849Z,-3.56
2022-12-17T05:19:20.161Z,-3.58
2022-12-17T05:20:20.434Z,-3.56
2022-12-17T05:21:20.792Z,-3.55
2022-12-17T05:22:21.076Z,-3.55
2022-12-17T05:23:21.423Z,-3.56
2022-12-17T05:24:21.731Z,-3.58
2022-12-17T05:25:22.030Z,-3.76
2022-12-17T05:26:22.361Z,-3.75
2022-12-17T05:27:22.709Z,-3.76
2022-12-17T05:28:23.051Z,-3.75
2022-12-17T05:29:23.326Z,-3.78
2022-12-17T05:30:23.683Z,-3.82
2022-12-17T05:31:24.026Z,-3.90
2022-12-17T05:32:24.193Z,-3.83
2022-12-17T05:33:24.522Z,-3.87
2022-12-17T05:34:24.853Z,-3.87
2022-12-17T05:35:25.223Z,-3.91
2022-12-17T05:36:25.532Z,-3.91
2022-12-17T05:37:25.830Z,-3.91
2022-12-17T05:38:26.100Z,-3.89
2022-12-17T05:39:26.431Z,-3.90
2022-12-17T05:40:26.712Z,-3.90
2022-12-17T05:41:27.041Z,-3.91
2022-12-17T05:42:27.397Z,-3.90
2022-12-17T05:43:27.729Z,-3.91
2022-12-17T05:44:28.015Z,-3.89
2022-12-17T05:45:28.373Z,-3.90
2022-12-17T05:46:28.708Z,-3.85
2022-12-17T05:47:28.991Z,-3.88
2022-12-17T05:48:29.294Z,-3.89
2022-12-17T05:49:29.609Z,-3.89
2022-12-17T05:50:29.882Z,-3.87
2022-12-17T05:51:33.457Z,-3.91
2022-12-17T05:52:31.511Z,-3.87
2022-12-17T05:53:30.759Z,-3.87
2022-12-17T05:54:31.069Z,-3.91
2022-12-17T05:55:31.379Z,-3.87
2022-12-17T05:56:31.693Z,-3.87
2022-12-17T05:57:31.991Z,-3.89
2022-12-17T05:58:32.350Z,-3.91
2022-12-17T05:59:32.659Z,-3.04
2022-12-17T06:00:32.968Z,-3.02
2022-12-17T06:01:33.324Z,-3.02
2022-12-17T06:02:33.710Z,-3.10
2022-12-17T06:03:34.271Z,-3.09
2022-12-17T06:04:34.151Z,-3.08
2022-12-17T06:05:34.459Z,-3.02
2022-12-17T06:06:34.778Z,-3.10
2022-12-17T06:07:35.086Z,-3.02
2022-12-17T06:08:35.411Z,-3.02
2022-12-17T06:09:35.718Z,-3.02
2022-12-17T06:10:36.052Z,-2.99
2022-12-17T06:11:36.409Z,-2.99
2022-12-17T06:12:36.720Z,-2.98
2022-12-17T06:13:37.324Z,-2.98
2022-12-17T06:14:37.338Z,-2.98
2022-12-17T06:15:37.611Z,-2.96
2022-12-17T06:16:38.017Z,-2.93
2022-12-17T06:17:38.171Z,-3.91
2022-12-17T06:18:38.551Z,-3.89
2022-12-17T06:19:38.902Z,-3.90
2022-12-17T06:20:39.197Z,-3.87
2022-12-17T06:21:39.476Z,-3.88
2022-12-17T06:22:39.791Z,-3.91
2022-12-17T06:23:40.141Z,-3.91
2022-12-17T06:24:45.708Z,-3.02
2022-12-17T06:25:41.732Z,-3.91
2022-12-17T06:26:40.958Z,-3.04
2022-12-17T06:27:41.322Z,-3.02
2022-12-17T06:28:41.644Z,-3.91
2022-12-17T06:29:41.901Z,-3.91
2022-12-17T06:30:42.248Z,-3.88
2022-12-17T06:31:42.623Z,-3.88
2022-12-17T06:32:42.923Z,-3.87
2022-12-17T06:33:43.277Z,-3.89
2022-12-17T06:34:43.571Z,-3.89
2022-12-17T06:35:43.928Z,-3.85
2022-12-17T06:36:44.388Z,-3.91
2022-12-17T06:37:44.590Z,-3.90
2022-12-17T06:38:44.869Z,-3.83
2022-12-17T06:39:45.217Z,-3.81
2022-12-17T06:40:45.530Z,-3.83
2022-12-17T06:41:45.849Z,-3.89
2022-12-17T06:42:46.224Z,-3.91
2022-12-17T06:43:46.507Z,-3.89
2022-12-17T06:44:46.851Z,-3.90
2022-12-17T06:45:47.179Z,-3.85
2022-12-17T06:46:47.585Z,-3.83
2022-12-17T06:47:47.796Z,-3.85
2022-12-17T06:48:48.096Z,-3.91
2022-12-17T06:49:48.467Z,-3.85
2022-12-17T06:50:48.748Z,-3.91
2022-12-17T06:51:49.096Z,-3.82
2022-12-17T06:52:50.166Z,-3.83
2022-12-17T06:53:49.768Z,-3.82
2022-12-17T06:54:50.048Z,-3.82
2022-12-17T06:55:50.391Z,-3.83
2022-12-17T06:56:50.718Z,-3.91
2022-12-17T06:57:51.086Z,-3.91
2022-12-17T06:58:51.408Z,-3.91
2022-12-17T06:59:51.693Z,-3.82
2022-12-17T07:00:52.117Z,-3.87
2022-12-17T07:01:52.428Z,-3.87
2022-12-17T07:02:52.785Z,-3.84
2022-12-17T07:03:52.936Z,-3.88
2022-12-17T07:04:53.256Z,-3.91
2022-12-17T07:05:53.529Z,-3.91
2022-12-17T07:06:53.879Z,-3.22
2022-12-17T07:07:54.184Z,-3.22
2022-12-17T07:08:54.463Z,-3.18
2022-12-17T07:09:54.807Z,-3.22
2022-12-17T07:10:55.073Z,-3.22
2022-12-17T07:11:55.376Z,-3.26
2022-12-17T07:12:55.571Z,-3.32
2022-12-17T07:13:55.915Z,-3.25
2022-12-17T07:14:56.750Z,-3.26
2022-12-17T07:15:56.435Z,-3.26
2022-12-17T07:16:56.685Z,-3.26
2022-12-17T07:17:56.856Z,-3.25
2022-12-17T07:18:57.209Z,-3.18
2022-12-17T07:19:57.468Z,-3.14
2022-12-17T07:20:57.769Z,-3.10
2022-12-17T07:21:58.064Z,-3.07
2022-12-17T07:22:58.273Z,-3.91
2022-12-17T07:23:58.574Z,-3.91
2022-12-17T07:24:58.817Z,-3.87
2022-12-17T07:25:59.072Z,-3.91
2022-12-17T07:26:59.404Z,-3.82
2022-12-17T07:27:59.727Z,-3.82
2022-12-17T07:29:00.028Z,-3.81
2022-12-17T07:30:00.287Z,-3.83
2022-12-17T07:31:00.589Z,-3.83
2022-12-17T07:32:01.088Z,-3.78
2022-12-17T07:33:01.135Z,-3.81
2022-12-17T07:34:01.370Z,-3.75
2022-12-17T07:35:01.611Z,-3.75
2022-12-17T07:36:01.854Z,-3.75
2022-12-17T07:37:02.262Z,-3.75
2022-12-17T07:38:02.418Z,-3.75
2022-12-17T07:39:02.776Z,-3.75
2022-12-17T07:40:03.055Z,-3.71
2022-12-17T07:41:03.263Z,-3.91
2022-12-17T07:42:03.508Z,-3.91
2022-12-17T07:43:03.748Z,-3.91
2022-12-17T07:44:04.031Z,-3.66
2022-12-17T07:45:04.239Z,-3.66
2022-12-17T07:46:04.505Z,-3.72
2022-12-17T07:47:04.759Z,-3.72
2022-12-17T07:48:05.115Z,-3.72
2022-12-17T07:49:05.326Z,-3.72
2022-12-17T07:50:05.556Z,-3.72
2022-12-17T07:51:05.823Z,-3.72
2022-12-17T07:52:06.136Z,-3.75
2022-12-17T07:53:06.391Z,-3.68
2022-12-17T07:54:06.624Z,-3.75
2022-12-17T07:55:06.858Z,-3.75
2022-12-17T07:56:07.103Z,-3.68
2022-12-17T07:57:07.393Z,-3.70
2022-12-17T07:58:07.633Z,-3.75
2022-12-17T07:59:07.818Z,-3.90
2022-12-17T08:00:08.051Z,-3.75
2022-12-17T08:01:08.358Z,-3.75
2022-12-17T08:02:08.822Z,-3.75
2022-12-17T08:03:08.920Z,-3.87
2022-12-17T08:04:09.072Z,-3.87
2022-12-17T08:05:09.415Z,-3.87
2022-12-17T08:06:09.726Z,-3.70
2022-12-17T08:07:13.862Z,-3.91
2022-12-17T08:08:10.227Z,-3.91
2022-12-17T08:09:10.569Z,-3.90
2022-12-17T08:10:10.737Z,-3.91
2022-12-17T08:11:10.969Z,-3.91
2022-12-17T08:12:11.282Z,-3.90
2022-12-17T08:13:14.262Z,-3.87
2022-12-17T08:14:18.802Z,-3.90
2022-12-17T08:15:12.081Z,-3.88
2022-12-17T08:16:12.362Z,-3.91
2022-12-17T08:17:12.600Z,-3.91
2022-12-17T08:18:12.828Z,-3.90
2022-12-17T08:19:13.081Z,-3.87
2022-12-17T08:20:13.297Z,-3.75
2022-12-17T08:21:13.564Z,-3.83
2022-12-17T08:22:13.904Z,-3.90
2022-12-17T08:23:14.123Z,-3.65
2022-12-17T08:24:14.342Z,-3.65
2022-12-17T08:25:14.633Z,-3.75
2022-12-17T08:26:14.848Z,-3.75
2022-12-17T08:27:15.109Z,-3.87
2022-12-17T08:28:41.593Z,-3.75
2022-12-17T08:29:16.618Z,-3.88
2022-12-17T08:32:36.824Z,-3.82
2022-12-17T08:33:37.524Z,-3.87
2022-12-17T08:34:37.525Z,-3.91
2022-12-17T08:35:37.742Z,-3.90
2022-12-17T08:36:38.074Z,-3.88
2022-12-17T08:37:38.304Z,-3.91
2022-12-17T08:38:38.645Z,-3.85
2022-12-17T08:39:38.879Z,-3.90
2022-12-17T08:40:39.134Z,-3.89
2022-12-17T08:41:39.463Z,-3.90
2022-12-17T08:42:39.742Z,-3.78
2022-12-17T08:43:40.191Z,-3.75
2022-12-17T08:44:40.302Z,-3.74
2022-12-17T08:45:47.611Z,-3.74
2022-12-17T08:46:40.769Z,-3.90
2022-12-17T08:47:41.007Z,-3.83
2022-12-17T08:48:41.292Z,-3.87
2022-12-17T08:49:41.496Z,-3.89
2022-12-17T08:50:41.745Z,-3.87
2022-12-17T08:51:42.032Z,-3.85
2022-12-17T08:52:42.225Z,-3.84
2022-12-17T08:53:42.672Z,-3.88
2022-12-17T08:54:42.822Z,-3.80
2022-12-17T08:55:43.025Z,-3.83
2022-12-17T08:56:43.311Z,-3.90
2022-12-17T08:57:43.531Z,-3.81
2022-12-17T08:58:43.775Z,-3.75
2022-12-17T08:59:44.033Z,-3.91
2022-12-17T09:00:44.314Z,-3.66
2022-12-17T09:01:44.690Z,-3.64
2022-12-17T09:02:44.970Z,-3.66
2022-12-17T09:03:46.048Z,-3.58
2022-12-17T09:04:45.461Z,-3.90
2022-12-17T09:05:45.708Z,-3.91
2022-12-17T09:06:45.941Z,-3.89
2022-12-17T09:07:46.201Z,-3.85
2022-12-17T09:08:46.421Z,-3.91
2022-12-17T09:09:46.672Z,-3.88
2022-12-17T09:10:46.918Z,-3.75
2022-12-17T09:11:47.182Z,-3.26
2022-12-17T09:12:47.422Z,-3.26
2022-12-17T09:13:48.585Z,-3.22
2022-12-17T09:14:47.992Z,-3.26
2022-12-17T09:15:48.258Z,-3.23
2022-12-17T09:16:48.551Z,-3.10
2022-12-17T09:17:48.784Z,-3.10
2022-12-17T09:18:49.059Z,-3.02
2022-12-17T09:19:49.280Z,-3.02
2022-12-17T09:20:49.514Z,-3.00
2022-12-17T09:21:49.791Z,-3.08
2022-12-17T09:22:50.001Z,-3.00
2022-12-17T09:23:50.244Z,-3.00
2022-12-17T09:24:50.521Z,-2.99
2022-12-17T09:25:56.482Z,-3.11
2022-12-17T09:26:52.187Z,-3.20
2022-12-17T09:27:51.460Z,-3.25
2022-12-17T09:28:51.732Z,-3.25
2022-12-17T09:29:51.953Z,-3.25
2022-12-17T09:30:52.256Z,-3.26
2022-12-17T09:31:52.518Z,-3.22
2022-12-17T09:32:52.739Z,-3.23
2022-12-17T09:33:53.010Z,-3.22
2022-12-17T09:34:53.257Z,-3.21
2022-12-17T09:35:53.457Z,-3.25
2022-12-17T09:36:53.781Z,-3.24
2022-12-17T09:37:53.991Z,-3.24
2022-12-17T09:38:54.233Z,-3.17
2022-12-17T09:39:54.517Z,-3.13
2022-12-17T09:40:54.772Z,-3.10
2022-12-17T09:41:55.069Z,-3.10
2022-12-17T09:42:59.662Z,-3.10
2022-12-17T09:43:55.579Z,-3.10
2022-12-17T09:44:55.847Z,-3.18
2022-12-17T09:45:56.130Z,-3.10
2022-12-17T09:46:56.343Z,-3.09
2022-12-17T09:47:56.719Z,-2.93
2022-12-17T09:48:56.943Z,-2.93
2022-12-17T09:49:57.209Z,-2.94
2022-12-17T09:50:57.447Z,-2.94
2022-12-17T09:51:57.701Z,-3.02
2022-12-17T09:52:57.935Z,-3.17
2022-12-17T09:56:19.125Z,-3.10
2022-12-17T09:57:19.477Z,-3.17
2022-12-17T09:58:19.697Z,-3.10
2022-12-17T09:59:20.032Z,-3.10
2022-12-17T10:00:20.285Z,-3.14
2022-12-17T10:01:20.651Z,-3.14
2022-12-17T10:02:21.125Z,-3.18
2022-12-17T10:03:21.228Z,-3.18
2022-12-17T10:04:21.487Z,-3.18
2022-12-17T10:05:21.699Z,-3.26
2022-12-17T10:06:22.765Z,-3.23
2022-12-17T10:07:22.298Z,-3.22
2022-12-17T10:08:25.504Z,-3.22
2022-12-17T10:09:22.917Z,-3.26
2022-12-17T10:10:23.266Z,-3.14
2022-12-17T10:11:23.494Z,-3.18
2022-12-17T10:12:23.719Z,-3.22
2022-12-17T10:13:23.972Z,-3.23
2022-12-17T10:14:24.190Z,-3.26
2022-12-17T10:15:24.429Z,-3.18
2022-12-17T10:16:24.755Z,-3.16
2022-12-17T10:17:24.997Z,-3.17
2022-12-17T10:18:25.328Z,-3.18
2022-12-17T10:19:25.638Z,-3.24
2022-12-17T10:20:33.278Z,-3.26
2022-12-17T10:21:26.204Z,-3.24
2022-12-17T10:22:26.489Z,-3.87
2022-12-17T10:23:26.698Z,-3.87
2022-12-17T10:24:26.958Z,-3.91
2022-12-17T10:25:27.297Z,-3.91
2022-12-17T10:26:27.634Z,-3.48
2022-12-17T10:27:27.984Z,-3.91
2022-12-17T10:28:28.306Z,-3.89
2022-12-17T10:29:28.708Z,-3.83
2022-12-17T10:30:28.927Z,-3.80
2022-12-17T10:31:29.346Z,-3.83
2022-12-17T10:32:29.607Z,-3.82
2022-12-17T10:33:29.844Z,-3.89
2022-12-17T10:34:30.066Z,-3.74
2022-12-17T10:35:30.379Z,-3.75
2022-12-17T10:36:30.634Z,-3.75
2022-12-17T10:37:30.918Z,-3.75
2022-12-17T10:38:31.139Z,-3.69
2022-12-17T10:39:31.450Z,-3.69
2022-12-17T10:40:31.718Z,-3.75
2022-12-17T10:41:32.031Z,-3.74
2022-12-17T10:42:34.571Z,-3.66
2022-12-17T10:43:32.670Z,-3.66
2022-12-17T10:44:32.827Z,-3.70
2022-12-17T10:45:33.122Z,-3.70
2022-12-17T10:46:33.443Z,-3.69
2022-12-17T10:47:33.639Z,-3.69
2022-12-17T10:48:33.986Z,-3.70
2022-12-17T10:49:34.306Z,-3.69
2022-12-17T10:50:34.563Z,-3.26
2022-12-17T10:51:34.895Z,-3.26
2022-12-17T10:52:35.212Z,-3.26
2022-12-17T10:53:35.761Z,-3.26
2022-12-17T10:54:35.778Z,-3.23
2022-12-17T10:55:36.046Z,-3.26
2022-12-17T10:56:36.385Z,-3.26
2022-12-17T10:57:36.727Z,-3.22
2022-12-17T10:58:37.029Z,-3.26
2022-12-17T10:59:37.260Z,-3.24
2022-12-17T11:00:37.665Z,-3.10
2022-12-17T11:01:37.928Z,-3.07
2022-12-17T11:02:38.373Z,-2.62
2022-12-17T11:03:38.902Z,-2.62
2022-12-17T11:04:38.718Z,-2.60
2022-12-17T11:05:38.948Z,-2.60
2022-12-17T11:06:42.508Z,-2.62
2022-12-17T11:07:39.628Z,-2.54
2022-12-17T11:08:40.162Z,-2.49
2022-12-17T11:09:40.135Z,-2.48
2022-12-17T11:10:40.455Z,-2.46
2022-12-17T11:11:40.687Z,-2.42
2022-12-17T11:12:40.940Z,-2.40
2022-12-17T11:13:41.168Z,-2.45
2022-12-17T11:14:41.529Z,-2.38
2022-12-17T11:15:41.820Z,-2.36
2022-12-17T11:16:42.007Z,-40.00
2022-12-17T11:17:42.269Z,-39.99
2022-12-17T11:18:42.606Z,-39.99
2022-12-17T11:19:42.862Z,-39.96
2022-12-17T11:23:04.652Z,-40.00
2022-12-17T11:26:25.368Z,-2.37
2022-12-17T11:27:25.809Z,-2.43
2022-12-17T11:28:26.107Z,-2.42
2022-12-17T11:29:29.363Z,-2.45
2022-12-17T11:30:30.788Z,-2.44
2022-12-17T11:31:26.951Z,-2.45
2022-12-17T11:32:27.918Z,-2.39
2022-12-17T11:33:27.787Z,-2.46
2022-12-17T11:34:27.807Z,-2.42
2022-12-17T11:35:27.906Z,-2.37
2022-12-17T11:36:33.804Z,-2.41
2022-12-17T11:37:29.567Z,-2.29
2022-12-17T11:38:28.827Z,-2.29
2022-12-17T11:39:29.049Z,-2.29
2022-12-17T11:40:29.323Z,-2.28
2022-12-17T11:41:29.618Z,-2.29
2022-12-17T11:42:30.010Z,-2.29
2022-12-17T11:43:30.212Z,-2.24
2022-12-17T11:44:30.555Z,-2.23
2022-12-17T11:45:30.906Z,-40.00
2022-12-17T11:46:31.164Z,-40.00
2022-12-17T11:47:31.483Z,-2.26
2022-12-17T11:48:31.703Z,-2.24
2022-12-17T11:49:31.917Z,-2.24
2022-12-17T11:50:32.137Z,-40.00
2022-12-17T11:51:32.433Z,-40.00
2022-12-17T11:52:32.675Z,-39.99
2022-12-17T11:53:32.897Z,-39.99
2022-12-17T11:54:33.207Z,-40.00
2022-12-17T11:55:33.464Z,-40.00
2022-12-17T11:56:33.687Z,-2.28
2022-12-17T11:57:33.979Z,-2.24
2022-12-17T11:58:34.419Z,-2.25
2022-12-17T11:59:34.417Z,-2.21
2022-12-17T12:00:34.656Z,-2.18
2022-12-17T12:01:34.928Z,-2.20
2022-12-17T12:02:35.214Z,-2.17
2022-12-17T12:03:35.495Z,-2.17
2022-12-17T12:04:35.649Z,-2.17
2022-12-17T12:05:35.903Z,-2.21
2022-12-17T12:06:36.126Z,-2.17
2022-12-17T12:07:36.379Z,-2.17
2022-12-17T12:08:36.934Z,-2.13
2022-12-17T12:09:36.967Z,-2.11
2022-12-17T12:10:37.243Z,-2.12
2022-12-17T12:11:37.473Z,-2.08
2022-12-17T12:12:37.717Z,-2.08
2022-12-17T12:13:37.907Z,-2.05
2022-12-17T12:14:38.173Z,-2.03
2022-12-17T12:15:38.523Z,-40.00
2022-12-17T12:16:43.523Z,-40.00
2022-12-17T12:17:40.203Z,-40.00
2022-12-17T12:18:39.898Z,-40.00
2022-12-17T12:19:39.746Z,-39.99
2022-12-17T12:20:40.032Z,-39.97
2022-12-17T12:21:40.263Z,-39.99
2022-12-17T12:22:40.650Z,-39.97
2022-12-17T12:23:40.847Z,-39.97
2022-12-17T12:24:41.113Z,-39.94
2022-12-17T12:25:41.415Z,-40.00
2022-12-17T12:26:41.657Z,-40.00
2022-12-17T12:27:42.949Z,-40.00
2022-12-17T12:28:42.272Z,-40.00
2022-12-17T12:29:42.500Z,-40.00
2022-12-17T12:30:42.831Z,-39.99
2022-12-17T12:31:43.132Z,-39.98
2022-12-17T12:32:43.373Z,-39.96
2022-12-17T12:33:43.613Z,-39.96
2022-12-17T12:34:43.853Z,-39.96
2022-12-17T12:35:44.067Z,-39.90
2022-12-17T12:36:44.312Z,-39.88
2022-12-17T12:37:44.601Z,-39.88
2022-12-17T12:38:46.613Z,-39.88
2022-12-17T12:39:45.158Z,-40.00
2022-12-17T12:40:45.358Z,-40.00
2022-12-17T12:41:45.706Z,-39.85
2022-12-17T12:42:46.000Z,-39.99
2022-12-17T12:43:46.183Z,-39.97
2022-12-17T12:44:49.676Z,-39.97
2022-12-17T12:45:46.814Z,-39.83
2022-12-17T12:46:47.019Z,-39.82
2022-12-17T12:47:47.275Z,-39.82
2022-12-17T12:48:47.538Z,-39.82
2022-12-17T12:49:47.886Z,-39.84
2022-12-17T12:50:48.222Z,-39.82
2022-12-17T12:51:48.580Z,-39.81
2022-12-17T12:52:48.804Z,-39.83
2022-12-17T12:53:49.041Z,-39.75
2022-12-17T12:54:49.264Z,-39.75
2022-12-17T12:55:49.524Z,-39.76
2022-12-17T12:56:49.762Z,-39.76
2022-12-17T12:57:50.022Z,-39.74
2022-12-17T12:58:50.281Z,-39.98
2022-12-17T12:59:50.465Z,-39.98
2022-12-17T13:00:50.775Z,-39.99